sensor_id;sensor_type;location;lat;lon;timestamp;temperature;humidity
8475;DHT22;4274;52.012;8.448;2022-12-07T00:01:39;3.50;99.90
8475;DHT22;4274;52.012;8.448;2022-12-07T00:04:07;3.50;99.90
8475;DHT22;4274;52.012;8.448;2022-12-07T00:06:36;3.60;99.90
8475;DHT22;4274;52.012;8.448;2022-12-07T00:09:03;3.60;99.90
8475;DHT22;4274;52.012;8.448;2022-12-07T00:11:30;3.60;99.90
8475;DHT22;4274;52.012;8.448;2022-12-07T00:13:59;3.60;99.90
8475;DHT22;4274;52.012;8.448;2022-12-07T00:16:28;3.70;99.90
8475;DHT22;4274;52.012;8.448;2022-12-07T00:18:54;3.70;99.90
8475;DHT22;4274;52.012;8.448;2022-12-07T00:21:25;3.70;99.90
8475;DHT22;4274;52.012;8.448;2022-12-07T00:23:52;3.70;99.90
8475;DHT22;4274;52.012;8.448;2022-12-07T00:26:20;3.70;99.90
8475;DHT22;4274;52.012;8.448;2022-12-07T00:28:50;3.70;99.90
8475;DHT22;4274;52.012;8.448;2022-12-07T00:31:17;3.70;99.90
8475;DHT22;4274;52.012;8.448;2022-12-07T00:33:43;3.70;99.90
8475;DHT22;4274;52.012;8.448;2022-12-07T00:36:11;3.80;99.90
8475;DHT22;4274;52.012;8.448;2022-12-07T00:38:38;3.80;99.90
8475;DHT22;4274;52.012;8.448;2022-12-07T00:41:13;3.80;99.90
8475;DHT22;4274;52.012;8.448;2022-12-07T00:43:40;3.80;99.90
8475;DHT22;4274;52.012;8.448;2022-12-07T00:46:06;3.80;99.90
8475;DHT22;4274;52.012;8.448;2022-12-07T00:48:32;3.80;99.90
8475;DHT22;4274;52.012;8.448;2022-12-07T00:50:57;3.80;99.90
8475;DHT22;4274;52.012;8.448;2022-12-07T00:53:23;3.90;99.90
8475;DHT22;4274;52.012;8.448;2022-12-07T00:55:49;3.90;99.90
8475;DHT22;4274;52.012;8.448;2022-12-07T00:58:15;3.90;99.90
8475;DHT22;4274;52.012;8.448;2022-12-07T01:00:42;3.90;99.90
8475;DHT22;4274;52.012;8.448;2022-12-07T01:03:09;3.90;99.90
8475;DHT22;4274;52.012;8.448;2022-12-07T01:05:35;4.00;99.90
8475;DHT22;4274;52.012;8.448;2022-12-07T01:08:00;4.00;99.90
8475;DHT22;4274;52.012;8.448;2022-12-07T01:10:27;4.10;99.90
8475;DHT22;4274;52.012;8.448;2022-12-07T01:12:53;4.10;99.90
8475;DHT22;4274;52.012;8.448;2022-12-07T01:15:18;4.10;99.90
8475;DHT22;4274;52.012;8.448;2022-12-07T01:17:44;4.10;99.90
8475;DHT22;4274;52.012;8.448;2022-12-07T01:20:10;4.10;99.90
8475;DHT22;4274;52.012;8.448;2022-12-07T01:22:40;4.20;99.90
8475;DHT22;4274;52.012;8.448;2022-12-07T01:25:07;4.20;99.90
8475;DHT22;4274;52.012;8.448;2022-12-07T01:27:33;4.20;99.90
8475;DHT22;4274;52.012;8.448;2022-12-07T01:30:00;4.20;99.90
8475;DHT22;4274;52.012;8.448;2022-12-07T01:32:25;4.20;99.90
8475;DHT22;4274;52.012;8.448;2022-12-07T01:34:51;4.20;99.90
8475;DHT22;4274;52.012;8.448;2022-12-07T01:37:16;4.20;99.90
8475;DHT22;4274;52.012;8.448;2022-12-07T01:39:42;4.30;99.90
8475;DHT22;4274;52.012;8.448;2022-12-07T01:42:11;4.20;99.90
8475;DHT22;4274;52.012;8.448;2022-12-07T01:47:41;4.10;99.90
8475;DHT22;4274;52.012;8.448;2022-12-07T01:50:08;4.10;99.90
8475;DHT22;4274;52.012;8.448;2022-12-07T01:52:34;4.10;99.90
8475;DHT22;4274;52.012;8.448;2022-12-07T01:55:10;4.10;99.90
8475;DHT22;4274;52.012;8.448;2022-12-07T01:57:41;4.10;99.90
8475;DHT22;4274;52.012;8.448;2022-12-07T02:00:09;4.10;99.90
8475;DHT22;4274;52.012;8.448;2022-12-07T02:05:27;4.10;99.90
8475;DHT22;4274;52.012;8.448;2022-12-07T02:07:55;4.10;99.90
8475;DHT22;4274;52.012;8.448;2022-12-07T02:10:24;4.10;99.90
8475;DHT22;4274;52.012;8.448;2022-12-07T02:12:57;4.10;99.90
8475;DHT22;4274;52.012;8.448;2022-12-07T02:21:12;4.20;99.90
8475;DHT22;4274;52.012;8.448;2022-12-07T02:24:15;4.20;99.90
8475;DHT22;4274;52.012;8.448;2022-12-07T02:27:10;4.20;99.90
8475;DHT22;4274;52.012;8.448;2022-12-07T02:30:01;4.20;99.90
8475;DHT22;4274;52.012;8.448;2022-12-07T02:32:40;4.20;99.90
8475;DHT22;4274;52.012;8.448;2022-12-07T02:35:29;4.20;99.90
8475;DHT22;4274;52.012;8.448;2022-12-07T02:40:42;4.20;99.90
8475;DHT22;4274;52.012;8.448;2022-12-07T02:43:23;4.20;99.90
8475;DHT22;4274;52.012;8.448;2022-12-07T02:45:52;4.10;99.90
8475;DHT22;4274;52.012;8.448;2022-12-07T02:48:19;4.10;99.90
8475;DHT22;4274;52.012;8.448;2022-12-07T02:50:48;4.10;99.90
8475;DHT22;4274;52.012;8.448;2022-12-07T03:01:41;4.10;99.90
8475;DHT22;4274;52.012;8.448;2022-12-07T03:10:24;4.10;99.90
8475;DHT22;4274;52.012;8.448;2022-12-07T03:18:30;4.10;99.90
8475;DHT22;4274;52.012;8.448;2022-12-07T03:21:00;4.10;99.90
8475;DHT22;4274;52.012;8.448;2022-12-07T03:23:27;4.10;99.90
8475;DHT22;4274;52.012;8.448;2022-12-07T03:25:58;4.10;99.90
8475;DHT22;4274;52.012;8.448;2022-12-07T03:28:29;4.00;99.90
8475;DHT22;4274;52.012;8.448;2022-12-07T03:31:29;4.00;99.90
8475;DHT22;4274;52.012;8.448;2022-12-07T03:37:05;4.00;99.90
8475;DHT22;4274;52.012;8.448;2022-12-07T03:39:47;4.10;99.90
8475;DHT22;4274;52.012;8.448;2022-12-07T03:42:16;4.00;99.90
8475;DHT22;4274;52.012;8.448;2022-12-07T03:44:42;4.00;99.90
8475;DHT22;4274;52.012;8.448;2022-12-07T03:47:12;4.00;99.90
8475;DHT22;4274;52.012;8.448;2022-12-07T03:57:43;3.90;99.90
8475;DHT22;4274;52.012;8.448;2022-12-07T04:00:11;3.90;99.90
8475;DHT22;4274;52.012;8.448;2022-12-07T04:02:37;3.80;99.90
8475;DHT22;4274;52.012;8.448;2022-12-07T04:05:03;3.80;99.90
8475;DHT22;4274;52.012;8.448;2022-12-07T04:07:29;3.80;99.90
8475;DHT22;4274;52.012;8.448;2022-12-07T04:09:54;3.80;99.90
8475;DHT22;4274;52.012;8.448;2022-12-07T04:12:23;3.80;99.90
8475;DHT22;4274;52.012;8.448;2022-12-07T04:14:49;3.80;99.90
8475;DHT22;4274;52.012;8.448;2022-12-07T04:17:14;3.80;99.90
8475;DHT22;4274;52.012;8.448;2022-12-07T04:19:40;3.80;99.90
8475;DHT22;4274;52.012;8.448;2022-12-07T04:22:06;3.70;99.90
8475;DHT22;4274;52.012;8.448;2022-12-07T04:24:32;3.70;99.90
8475;DHT22;4274;52.012;8.448;2022-12-07T04:26:58;3.70;99.90
8475;DHT22;4274;52.012;8.448;2022-12-07T04:29:24;3.60;99.90
8475;DHT22;4274;52.012;8.448;2022-12-07T04:31:50;3.70;99.90
8475;DHT22;4274;52.012;8.448;2022-12-07T04:34:17;3.70;99.90
8475;DHT22;4274;52.012;8.448;2022-12-07T04:36:42;3.70;99.90
8475;DHT22;4274;52.012;8.448;2022-12-07T04:39:18;3.70;99.90
8475;DHT22;4274;52.012;8.448;2022-12-07T04:41:44;3.60;99.90
8475;DHT22;4274;52.012;8.448;2022-12-07T04:44:10;3.60;99.90
8475;DHT22;4274;52.012;8.448;2022-12-07T04:46:36;3.60;99.90
8475;DHT22;4274;52.012;8.448;2022-12-07T04:49:02;3.60;99.90
8475;DHT22;4274;52.012;8.448;2022-12-07T04:51:29;3.60;99.90
8475;DHT22;4274;52.012;8.448;2022-12-07T04:53:55;3.60;99.90
8475;DHT22;4274;52.012;8.448;2022-12-07T04:56:21;3.60;99.90
8475;DHT22;4274;52.012;8.448;2022-12-07T04:58:48;3.60;99.90
8475;DHT22;4274;52.012;8.448;2022-12-07T05:01:15;3.60;99.90
8475;DHT22;4274;52.012;8.448;2022-12-07T05:03:41;3.60;99.90
8475;DHT22;4274;52.012;8.448;2022-12-07T05:06:07;3.50;99.90
8475;DHT22;4274;52.012;8.448;2022-12-07T05:08:34;3.50;99.90
8475;DHT22;4274;52.012;8.448;2022-12-07T05:11:00;3.50;99.90
8475;DHT22;4274;52.012;8.448;2022-12-07T05:13:26;3.50;99.90
8475;DHT22;4274;52.012;8.448;2022-12-07T05:15:51;3.50;99.90
8475;DHT22;4274;52.012;8.448;2022-12-07T05:18:17;3.50;99.90
8475;DHT22;4274;52.012;8.448;2022-12-07T05:20:43;3.40;99.90
8475;DHT22;4274;52.012;8.448;2022-12-07T05:23:09;3.40;99.90
8475;DHT22;4274;52.012;8.448;2022-12-07T05:25:35;3.40;99.90
8475;DHT22;4274;52.012;8.448;2022-12-07T05:28:01;3.40;99.90
8475;DHT22;4274;52.012;8.448;2022-12-07T05:30:27;3.30;99.90
8475;DHT22;4274;52.012;8.448;2022-12-07T05:32:53;3.30;99.90
8475;DHT22;4274;52.012;8.448;2022-12-07T05:35:19;3.30;99.90
8475;DHT22;4274;52.012;8.448;2022-12-07T05:37:45;3.30;99.90
8475;DHT22;4274;52.012;8.448;2022-12-07T05:40:12;3.30;99.90
8475;DHT22;4274;52.012;8.448;2022-12-07T05:42:39;3.30;99.90
8475;DHT22;4274;52.012;8.448;2022-12-07T05:45:05;3.30;99.90
8475;DHT22;4274;52.012;8.448;2022-12-07T05:47:31;3.30;99.90
8475;DHT22;4274;52.012;8.448;2022-12-07T05:49:56;3.30;99.90
8475;DHT22;4274;52.012;8.448;2022-12-07T05:52:22;3.30;99.90
8475;DHT22;4274;52.012;8.448;2022-12-07T05:54:48;3.30;99.90
8475;DHT22;4274;52.012;8.448;2022-12-07T05:57:14;3.30;99.90
8475;DHT22;4274;52.012;8.448;2022-12-07T05:59:39;3.30;99.90
8475;DHT22;4274;52.012;8.448;2022-12-07T06:02:08;3.20;99.90
8475;DHT22;4274;52.012;8.448;2022-12-07T06:04:40;3.20;99.90
8475;DHT22;4274;52.012;8.448;2022-12-07T06:07:06;3.20;99.90
8475;DHT22;4274;52.012;8.448;2022-12-07T06:09:32;3.20;99.90
8475;DHT22;4274;52.012;8.448;2022-12-07T06:11:59;3.20;99.90
8475;DHT22;4274;52.012;8.448;2022-12-07T06:14:43;3.20;99.90
8475;DHT22;4274;52.012;8.448;2022-12-07T06:17:09;3.20;99.90
8475;DHT22;4274;52.012;8.448;2022-12-07T06:19:35;3.20;99.90
8475;DHT22;4274;52.012;8.448;2022-12-07T06:22:01;3.10;99.90
8475;DHT22;4274;52.012;8.448;2022-12-07T06:24:28;3.10;99.90
8475;DHT22;4274;52.012;8.448;2022-12-07T06:26:53;3.20;99.90
8475;DHT22;4274;52.012;8.448;2022-12-07T06:29:19;3.10;99.90
8475;DHT22;4274;52.012;8.448;2022-12-07T06:31:45;3.20;99.90
8475;DHT22;4274;52.012;8.448;2022-12-07T06:34:13;3.20;99.90
8475;DHT22;4274;52.012;8.448;2022-12-07T06:36:38;3.10;99.90
8475;DHT22;4274;52.012;8.448;2022-12-07T06:39:05;3.10;99.90
8475;DHT22;4274;52.012;8.448;2022-12-07T06:41:31;3.10;99.90
8475;DHT22;4274;52.012;8.448;2022-12-07T06:43:56;3.10;99.90
8475;DHT22;4274;52.012;8.448;2022-12-07T06:46:23;3.20;99.90
8475;DHT22;4274;52.012;8.448;2022-12-07T06:48:49;3.10;99.90
8475;DHT22;4274;52.012;8.448;2022-12-07T06:51:16;3.10;99.90
8475;DHT22;4274;52.012;8.448;2022-12-07T06:53:41;3.10;99.90
8475;DHT22;4274;52.012;8.448;2022-12-07T06:56:07;3.10;99.90
8475;DHT22;4274;52.012;8.448;2022-12-07T06:58:33;3.10;99.90
8475;DHT22;4274;52.012;8.448;2022-12-07T07:00:58;3.10;99.90
8475;DHT22;4274;52.012;8.448;2022-12-07T07:03:24;3.10;99.90
8475;DHT22;4274;52.012;8.448;2022-12-07T07:05:49;3.10;99.90
8475;DHT22;4274;52.012;8.448;2022-12-07T07:08:15;3.10;99.90
8475;DHT22;4274;52.012;8.448;2022-12-07T07:10:41;3.10;99.90
8475;DHT22;4274;52.012;8.448;2022-12-07T07:13:07;3.10;99.90
8475;DHT22;4274;52.012;8.448;2022-12-07T07:15:33;3.10;99.90
8475;DHT22;4274;52.012;8.448;2022-12-07T07:17:59;3.10;99.90
8475;DHT22;4274;52.012;8.448;2022-12-07T07:20:25;3.10;99.90
8475;DHT22;4274;52.012;8.448;2022-12-07T07:22:54;3.10;99.90
8475;DHT22;4274;52.012;8.448;2022-12-07T07:25:19;3.10;99.90
8475;DHT22;4274;52.012;8.448;2022-12-07T07:27:45;3.10;99.90
8475;DHT22;4274;52.012;8.448;2022-12-07T07:30:11;3.10;99.90
8475;DHT22;4274;52.012;8.448;2022-12-07T07:32:37;3.00;99.90
8475;DHT22;4274;52.012;8.448;2022-12-07T07:35:03;3.00;99.90
8475;DHT22;4274;52.012;8.448;2022-12-07T07:37:29;3.10;99.90
8475;DHT22;4274;52.012;8.448;2022-12-07T07:39:55;3.10;99.90
8475;DHT22;4274;52.012;8.448;2022-12-07T07:42:20;3.10;99.90
8475;DHT22;4274;52.012;8.448;2022-12-07T07:44:46;3.10;99.90
8475;DHT22;4274;52.012;8.448;2022-12-07T07:47:11;3.10;99.90
8475;DHT22;4274;52.012;8.448;2022-12-07T07:49:37;3.00;99.90
8475;DHT22;4274;52.012;8.448;2022-12-07T07:52:03;3.10;99.90
8475;DHT22;4274;52.012;8.448;2022-12-07T07:54:29;3.00;99.90
8475;DHT22;4274;52.012;8.448;2022-12-07T07:56:54;3.10;99.90
8475;DHT22;4274;52.012;8.448;2022-12-07T07:59:20;3.10;99.90
8475;DHT22;4274;52.012;8.448;2022-12-07T08:01:45;3.10;99.90
8475;DHT22;4274;52.012;8.448;2022-12-07T08:04:11;3.00;99.90
8475;DHT22;4274;52.012;8.448;2022-12-07T08:06:36;3.00;99.90
8475;DHT22;4274;52.012;8.448;2022-12-07T08:09:02;3.10;99.90
8475;DHT22;4274;52.012;8.448;2022-12-07T08:11:30;3.10;99.90
8475;DHT22;4274;52.012;8.448;2022-12-07T08:13:56;3.10;99.90
8475;DHT22;4274;52.012;8.448;2022-12-07T08:16:21;3.10;99.90
8475;DHT22;4274;52.012;8.448;2022-12-07T08:18:47;3.10;99.90
8475;DHT22;4274;52.012;8.448;2022-12-07T08:21:14;3.10;99.90
8475;DHT22;4274;52.012;8.448;2022-12-07T08:23:40;3.20;99.90
8475;DHT22;4274;52.012;8.448;2022-12-07T08:26:09;3.10;99.90
8475;DHT22;4274;52.012;8.448;2022-12-07T08:28:35;3.10;99.90
8475;DHT22;4274;52.012;8.448;2022-12-07T08:31:10;3.10;99.90
8475;DHT22;4274;52.012;8.448;2022-12-07T08:33:36;3.20;99.90
8475;DHT22;4274;52.012;8.448;2022-12-07T08:36:09;3.20;99.90
8475;DHT22;4274;52.012;8.448;2022-12-07T08:38:36;3.20;99.90
8475;DHT22;4274;52.012;8.448;2022-12-07T08:41:02;3.30;99.90
8475;DHT22;4274;52.012;8.448;2022-12-07T08:43:28;3.30;99.90
8475;DHT22;4274;52.012;8.448;2022-12-07T08:48:42;3.40;99.90
8475;DHT22;4274;52.012;8.448;2022-12-07T08:51:08;3.50;99.90
8475;DHT22;4274;52.012;8.448;2022-12-07T08:53:35;3.50;99.90
8475;DHT22;4274;52.012;8.448;2022-12-07T08:56:01;3.50;99.90
8475;DHT22;4274;52.012;8.448;2022-12-07T08:58:27;3.50;99.90
8475;DHT22;4274;52.012;8.448;2022-12-07T09:00:53;3.50;99.90
8475;DHT22;4274;52.012;8.448;2022-12-07T09:03:18;3.50;99.90
8475;DHT22;4274;52.012;8.448;2022-12-07T09:05:44;3.50;99.90
8475;DHT22;4274;52.012;8.448;2022-12-07T09:08:09;3.50;99.90
8475;DHT22;4274;52.012;8.448;2022-12-07T09:10:35;3.50;99.90
8475;DHT22;4274;52.012;8.448;2022-12-07T09:13:01;3.60;99.90
8475;DHT22;4274;52.012;8.448;2022-12-07T09:15:28;3.60;99.90
8475;DHT22;4274;52.012;8.448;2022-12-07T09:17:54;3.70;99.90
8475;DHT22;4274;52.012;8.448;2022-12-07T09:20:19;3.70;99.90
8475;DHT22;4274;52.012;8.448;2022-12-07T09:22:45;3.70;99.90
8475;DHT22;4274;52.012;8.448;2022-12-07T09:25:10;3.70;99.90
8475;DHT22;4274;52.012;8.448;2022-12-07T09:27:36;3.60;99.90
8475;DHT22;4274;52.012;8.448;2022-12-07T09:30:03;3.60;99.90
8475;DHT22;4274;52.012;8.448;2022-12-07T09:32:28;3.60;99.90
8475;DHT22;4274;52.012;8.448;2022-12-07T09:34:54;3.50;99.90
8475;DHT22;4274;52.012;8.448;2022-12-07T09:37:20;3.50;99.90
8475;DHT22;4274;52.012;8.448;2022-12-07T09:39:46;3.50;99.90
8475;DHT22;4274;52.012;8.448;2022-12-07T09:42:38;3.60;99.90
8475;DHT22;4274;52.012;8.448;2022-12-07T09:45:31;3.70;99.90
8475;DHT22;4274;52.012;8.448;2022-12-07T09:47:58;3.70;99.90
8475;DHT22;4274;52.012;8.448;2022-12-07T09:50:27;3.70;99.90
8475;DHT22;4274;52.012;8.448;2022-12-07T09:53:08;3.70;99.90
8475;DHT22;4274;52.012;8.448;2022-12-07T09:55:43;3.70;99.90
8475;DHT22;4274;52.012;8.448;2022-12-07T09:58:23;3.60;99.90
8475;DHT22;4274;52.012;8.448;2022-12-07T10:01:17;3.60;99.90
8475;DHT22;4274;52.012;8.448;2022-12-07T10:03:55;3.70;99.90
8475;DHT22;4274;52.012;8.448;2022-12-07T10:06:23;3.70;99.90
8475;DHT22;4274;52.012;8.448;2022-12-07T10:08:49;3.70;99.90
8475;DHT22;4274;52.012;8.448;2022-12-07T10:11:14;3.70;99.90
8475;DHT22;4274;52.012;8.448;2022-12-07T10:13:46;3.80;99.90
8475;DHT22;4274;52.012;8.448;2022-12-07T10:16:38;3.80;99.90
8475;DHT22;4274;52.012;8.448;2022-12-07T10:19:27;3.80;99.90
8475;DHT22;4274;52.012;8.448;2022-12-07T10:22:11;3.90;99.90
8475;DHT22;4274;52.012;8.448;2022-12-07T10:24:41;3.90;99.90
8475;DHT22;4274;52.012;8.448;2022-12-07T10:27:20;3.90;99.90
8475;DHT22;4274;52.012;8.448;2022-12-07T10:29:48;4.00;99.90
8475;DHT22;4274;52.012;8.448;2022-12-07T10:34:41;4.10;99.90
8475;DHT22;4274;52.012;8.448;2022-12-07T10:37:27;4.10;99.90
8475;DHT22;4274;52.012;8.448;2022-12-07T10:39:57;4.20;99.90
8475;DHT22;4274;52.012;8.448;2022-12-07T10:42:28;4.20;99.90
8475;DHT22;4274;52.012;8.448;2022-12-07T10:45:20;4.20;99.90
8475;DHT22;4274;52.012;8.448;2022-12-07T10:47:55;4.30;99.90
8475;DHT22;4274;52.012;8.448;2022-12-07T10:50:41;4.20;99.90
8475;DHT22;4274;52.012;8.448;2022-12-07T10:58:44;4.50;99.90
8475;DHT22;4274;52.012;8.448;2022-12-07T11:06:33;4.50;99.90
8475;DHT22;4274;52.012;8.448;2022-12-07T11:12:10;4.60;99.90
8475;DHT22;4274;52.012;8.448;2022-12-07T11:22:54;4.70;99.90
8475;DHT22;4274;52.012;8.448;2022-12-07T11:25:37;4.80;99.90
8475;DHT22;4274;52.012;8.448;2022-12-07T11:36:29;4.90;99.90
8475;DHT22;4274;52.012;8.448;2022-12-07T11:39:00;4.90;99.90
8475;DHT22;4274;52.012;8.448;2022-12-07T11:41:33;5.00;99.90
8475;DHT22;4274;52.012;8.448;2022-12-07T11:44:08;5.00;99.90
8475;DHT22;4274;52.012;8.448;2022-12-07T11:46:51;5.00;99.90
8475;DHT22;4274;52.012;8.448;2022-12-07T11:52:06;5.10;99.90
8475;DHT22;4274;52.012;8.448;2022-12-07T11:54:38;5.10;99.90
8475;DHT22;4274;52.012;8.448;2022-12-07T11:57:16;5.10;99.90
8475;DHT22;4274;52.012;8.448;2022-12-07T11:59:52;5.20;99.90
8475;DHT22;4274;52.012;8.448;2022-12-07T12:02:43;5.20;99.90
8475;DHT22;4274;52.012;8.448;2022-12-07T12:05:19;5.40;99.90
8475;DHT22;4274;52.012;8.448;2022-12-07T12:08:33;5.50;99.90
8475;DHT22;4274;52.012;8.448;2022-12-07T12:18:57;5.90;99.90
8475;DHT22;4274;52.012;8.448;2022-12-07T12:21:31;6.00;99.90
8475;DHT22;4274;52.012;8.448;2022-12-07T12:24:11;6.10;99.90
8475;DHT22;4274;52.012;8.448;2022-12-07T12:26:38;6.10;99.90
8475;DHT22;4274;52.012;8.448;2022-12-07T12:29:21;6.00;99.90
8475;DHT22;4274;52.012;8.448;2022-12-07T12:32:13;5.90;99.90
8475;DHT22;4274;52.012;8.448;2022-12-07T12:45:29;5.40;99.90
8475;DHT22;4274;52.012;8.448;2022-12-07T12:47:59;5.40;99.90
8475;DHT22;4274;52.012;8.448;2022-12-07T13:00:46;5.50;99.90
8475;DHT22;4274;52.012;8.448;2022-12-07T13:03:29;5.60;99.90
8475;DHT22;4274;52.012;8.448;2022-12-07T13:08:51;5.60;99.90
8475;DHT22;4274;52.012;8.448;2022-12-07T13:11:35;5.60;99.90
8475;DHT22;4274;52.012;8.448;2022-12-07T13:17:03;5.60;99.90
8475;DHT22;4274;52.012;8.448;2022-12-07T13:25:17;5.40;99.90
8475;DHT22;4274;52.012;8.448;2022-12-07T13:27:55;5.50;99.90
8475;DHT22;4274;52.012;8.448;2022-12-07T13:30:22;5.40;99.90
8475;DHT22;4274;52.012;8.448;2022-12-07T13:32:52;5.30;99.90
8475;DHT22;4274;52.012;8.448;2022-12-07T13:40:31;5.20;99.90
8475;DHT22;4274;52.012;8.448;2022-12-07T13:43:01;5.20;99.90
8475;DHT22;4274;52.012;8.448;2022-12-07T13:45:32;5.20;99.90
8475;DHT22;4274;52.012;8.448;2022-12-07T13:50:53;5.10;99.90
8475;DHT22;4274;52.012;8.448;2022-12-07T13:53:19;5.10;99.90
8475;DHT22;4274;52.012;8.448;2022-12-07T13:55:46;5.10;99.90
8475;DHT22;4274;52.012;8.448;2022-12-07T13:58:12;5.10;99.90
8475;DHT22;4274;52.012;8.448;2022-12-07T14:00:39;5.10;99.90
8475;DHT22;4274;52.012;8.448;2022-12-07T14:05:37;5.10;99.90
8475;DHT22;4274;52.012;8.448;2022-12-07T14:08:22;5.00;99.90
8475;DHT22;4274;52.012;8.448;2022-12-07T14:13:32;4.90;99.90
8475;DHT22;4274;52.012;8.448;2022-12-07T14:18:47;4.80;99.90
8475;DHT22;4274;52.012;8.448;2022-12-07T14:23:39;4.70;99.90
8475;DHT22;4274;52.012;8.448;2022-12-07T14:26:13;4.70;99.90
8475;DHT22;4274;52.012;8.448;2022-12-07T14:28:40;4.60;99.90
8475;DHT22;4274;52.012;8.448;2022-12-07T14:31:18;4.60;99.90
8475;DHT22;4274;52.012;8.448;2022-12-07T14:33:46;4.60;99.90
8475;DHT22;4274;52.012;8.448;2022-12-07T14:36:13;4.60;99.90
8475;DHT22;4274;52.012;8.448;2022-12-07T14:38:39;4.60;99.90
8475;DHT22;4274;52.012;8.448;2022-12-07T14:41:12;4.60;99.90
8475;DHT22;4274;52.012;8.448;2022-12-07T14:43:57;4.60;99.90
8475;DHT22;4274;52.012;8.448;2022-12-07T14:46:23;4.60;99.90
8475;DHT22;4274;52.012;8.448;2022-12-07T14:48:49;4.60;99.90
8475;DHT22;4274;52.012;8.448;2022-12-07T14:51:15;4.60;99.90
8475;DHT22;4274;52.012;8.448;2022-12-07T14:53:45;4.60;99.90
8475;DHT22;4274;52.012;8.448;2022-12-07T14:56:12;4.60;99.90
8475;DHT22;4274;52.012;8.448;2022-12-07T14:58:37;4.60;99.90
8475;DHT22;4274;52.012;8.448;2022-12-07T15:01:03;4.60;99.90
8475;DHT22;4274;52.012;8.448;2022-12-07T15:03:29;4.50;99.90
8475;DHT22;4274;52.012;8.448;2022-12-07T15:05:55;4.50;99.90
8475;DHT22;4274;52.012;8.448;2022-12-07T15:08:20;4.50;99.90
8475;DHT22;4274;52.012;8.448;2022-12-07T15:10:46;4.50;99.90
8475;DHT22;4274;52.012;8.448;2022-12-07T15:13:12;4.50;99.90
8475;DHT22;4274;52.012;8.448;2022-12-07T15:15:56;4.40;99.90
8475;DHT22;4274;52.012;8.448;2022-12-07T15:18:23;4.40;99.90
8475;DHT22;4274;52.012;8.448;2022-12-07T15:20:49;4.40;99.90
8475;DHT22;4274;52.012;8.448;2022-12-07T15:23:15;4.30;99.90
8475;DHT22;4274;52.012;8.448;2022-12-07T15:25:44;4.30;99.90
8475;DHT22;4274;52.012;8.448;2022-12-07T15:28:10;4.30;99.90
8475;DHT22;4274;52.012;8.448;2022-12-07T15:30:40;4.20;99.90
8475;DHT22;4274;52.012;8.448;2022-12-07T15:33:08;4.20;99.90
8475;DHT22;4274;52.012;8.448;2022-12-07T15:35:33;4.20;99.90
8475;DHT22;4274;52.012;8.448;2022-12-07T15:37:59;4.10;99.90
8475;DHT22;4274;52.012;8.448;2022-12-07T15:40:24;4.10;99.90
8475;DHT22;4274;52.012;8.448;2022-12-07T15:42:50;4.10;99.90
8475;DHT22;4274;52.012;8.448;2022-12-07T15:45:15;4.10;99.90
8475;DHT22;4274;52.012;8.448;2022-12-07T15:47:42;4.20;99.90
8475;DHT22;4274;52.012;8.448;2022-12-07T15:50:13;4.10;99.90
8475;DHT22;4274;52.012;8.448;2022-12-07T15:52:39;4.10;99.90
8475;DHT22;4274;52.012;8.448;2022-12-07T15:55:05;4.10;99.90
8475;DHT22;4274;52.012;8.448;2022-12-07T15:57:32;4.10;99.90
8475;DHT22;4274;52.012;8.448;2022-12-07T15:59:58;4.10;99.90
8475;DHT22;4274;52.012;8.448;2022-12-07T16:02:24;4.10;99.90
8475;DHT22;4274;52.012;8.448;2022-12-07T16:04:51;4.00;99.90
8475;DHT22;4274;52.012;8.448;2022-12-07T16:07:17;4.10;99.90
8475;DHT22;4274;52.012;8.448;2022-12-07T16:09:44;4.00;99.90
8475;DHT22;4274;52.012;8.448;2022-12-07T16:12:11;4.00;99.90
8475;DHT22;4274;52.012;8.448;2022-12-07T16:14:37;4.00;99.90
8475;DHT22;4274;52.012;8.448;2022-12-07T16:17:04;4.00;99.90
8475;DHT22;4274;52.012;8.448;2022-12-07T16:19:31;4.00;99.90
8475;DHT22;4274;52.012;8.448;2022-12-07T16:21:57;4.00;99.90
8475;DHT22;4274;52.012;8.448;2022-12-07T16:24:22;3.90;99.90
8475;DHT22;4274;52.012;8.448;2022-12-07T16:26:48;3.90;99.90
8475;DHT22;4274;52.012;8.448;2022-12-07T16:29:14;4.00;99.90
8475;DHT22;4274;52.012;8.448;2022-12-07T16:31:40;4.00;99.90
8475;DHT22;4274;52.012;8.448;2022-12-07T16:34:07;4.00;99.90
8475;DHT22;4274;52.012;8.448;2022-12-07T16:36:32;3.90;99.90
8475;DHT22;4274;52.012;8.448;2022-12-07T16:38:59;3.90;99.90
8475;DHT22;4274;52.012;8.448;2022-12-07T16:41:24;3.90;99.90
8475;DHT22;4274;52.012;8.448;2022-12-07T16:43:50;3.80;99.90
8475;DHT22;4274;52.012;8.448;2022-12-07T16:46:16;3.80;99.90
8475;DHT22;4274;52.012;8.448;2022-12-07T16:48:42;3.70;99.90
8475;DHT22;4274;52.012;8.448;2022-12-07T16:51:10;3.70;99.90
8475;DHT22;4274;52.012;8.448;2022-12-07T16:53:37;3.70;99.90
8475;DHT22;4274;52.012;8.448;2022-12-07T16:56:04;3.70;99.90
8475;DHT22;4274;52.012;8.448;2022-12-07T16:58:30;3.60;99.90
8475;DHT22;4274;52.012;8.448;2022-12-07T17:00:56;3.60;99.90
8475;DHT22;4274;52.012;8.448;2022-12-07T17:03:22;3.60;99.90
8475;DHT22;4274;52.012;8.448;2022-12-07T17:05:48;3.60;99.90
8475;DHT22;4274;52.012;8.448;2022-12-07T17:08:15;3.50;99.90
8475;DHT22;4274;52.012;8.448;2022-12-07T17:10:42;3.50;99.90
8475;DHT22;4274;52.012;8.448;2022-12-07T17:13:10;3.50;99.90
8475;DHT22;4274;52.012;8.448;2022-12-07T17:16:00;3.40;99.90
8475;DHT22;4274;52.012;8.448;2022-12-07T17:18:33;3.30;99.90
8475;DHT22;4274;52.012;8.448;2022-12-07T17:21:07;3.30;99.90
8475;DHT22;4274;52.012;8.448;2022-12-07T17:23:35;3.30;99.90
8475;DHT22;4274;52.012;8.448;2022-12-07T17:26:09;3.30;99.90
8475;DHT22;4274;52.012;8.448;2022-12-07T17:28:35;3.30;99.90
8475;DHT22;4274;52.012;8.448;2022-12-07T17:31:04;3.30;99.90
8475;DHT22;4274;52.012;8.448;2022-12-07T17:33:31;3.30;99.90
8475;DHT22;4274;52.012;8.448;2022-12-07T17:35:57;3.20;99.90
8475;DHT22;4274;52.012;8.448;2022-12-07T17:38:22;3.20;99.90
8475;DHT22;4274;52.012;8.448;2022-12-07T17:40:48;3.20;99.90
8475;DHT22;4274;52.012;8.448;2022-12-07T17:43:14;3.30;99.90
8475;DHT22;4274;52.012;8.448;2022-12-07T17:45:39;3.30;99.90
8475;DHT22;4274;52.012;8.448;2022-12-07T17:48:05;3.30;99.90
8475;DHT22;4274;52.012;8.448;2022-12-07T17:50:30;3.40;99.90
8475;DHT22;4274;52.012;8.448;2022-12-07T17:53:15;3.40;99.90
8475;DHT22;4274;52.012;8.448;2022-12-07T17:55:40;3.40;99.90
8475;DHT22;4274;52.012;8.448;2022-12-07T17:58:06;3.40;99.90
8475;DHT22;4274;52.012;8.448;2022-12-07T18:00:32;3.40;99.90
8475;DHT22;4274;52.012;8.448;2022-12-07T18:03:06;3.50;99.90
8475;DHT22;4274;52.012;8.448;2022-12-07T18:05:34;3.50;99.90
8475;DHT22;4274;52.012;8.448;2022-12-07T18:08:00;3.50;99.90
8475;DHT22;4274;52.012;8.448;2022-12-07T18:10:26;3.50;99.90
8475;DHT22;4274;52.012;8.448;2022-12-07T18:12:51;3.50;99.90
8475;DHT22;4274;52.012;8.448;2022-12-07T18:15:37;3.50;99.90
8475;DHT22;4274;52.012;8.448;2022-12-07T18:18:03;3.50;99.90
8475;DHT22;4274;52.012;8.448;2022-12-07T18:20:29;3.50;99.90
8475;DHT22;4274;52.012;8.448;2022-12-07T18:22:54;3.40;99.90
8475;DHT22;4274;52.012;8.448;2022-12-07T18:25:20;3.40;99.90
8475;DHT22;4274;52.012;8.448;2022-12-07T18:27:45;3.30;99.90
8475;DHT22;4274;52.012;8.448;2022-12-07T18:30:11;3.30;99.90
8475;DHT22;4274;52.012;8.448;2022-12-07T18:32:37;3.30;99.90
8475;DHT22;4274;52.012;8.448;2022-12-07T18:35:03;3.20;99.90
8475;DHT22;4274;52.012;8.448;2022-12-07T18:37:29;3.20;99.90
8475;DHT22;4274;52.012;8.448;2022-12-07T18:39:55;3.20;99.90
8475;DHT22;4274;52.012;8.448;2022-12-07T18:42:21;3.20;99.90
8475;DHT22;4274;52.012;8.448;2022-12-07T18:44:47;3.20;99.90
8475;DHT22;4274;52.012;8.448;2022-12-07T18:47:12;3.20;99.90
8475;DHT22;4274;52.012;8.448;2022-12-07T18:49:38;3.20;99.90
8475;DHT22;4274;52.012;8.448;2022-12-07T18:52:03;3.20;99.90